Time;durP1;ratioP1;P1;durP2;ratioP2;P2;SDS_P1;SDS_P2;PMS_P1;PMS_P2;Temp;Humidity;BMP_temperature;BMP_pressure;BME280_temperature;BME280_humidity;BME280_pressure;Samples;Min_cycle;Max_cycle;Signal;HPM_P1;HPM_P2
2020/12/30 00:01:00;;;;;;;11.57;8.45;;;3.60;99.90;;;;;;4968642;28;20296;-85
2020/12/30 00:03:26;;;;;;;14.30;8.37;;;3.70;99.90;;;;;;4939364;29;20729;-84
2020/12/30 00:05:52;;;;;;;10.10;7.30;;;3.70;99.90;;;;;;4943184;29;20439;-84
2020/12/30 00:08:18;;;;;;;11.80;8.10;;;3.70;99.90;;;;;;4942135;28;20532;-84
2020/12/30 00:10:50;;;;;;;11.55;7.10;;;3.80;99.90;;;;;;4955701;29;20660;-85
2020/12/30 00:13:18;;;;;;;9.90;7.07;;;3.80;99.90;;;;;;4973512;28;20204;-84
2020/12/30 00:15:44;;;;;;;10.80;8.00;;;3.70;99.90;;;;;;4950204;28;20555;-84
2020/12/30 00:18:12;;;;;;;12.73;8.68;;;3.70;99.90;;;;;;4944303;28;20308;-84
2020/12/30 00:20:41;;;;;;;13.55;7.68;;;3.70;99.90;;;;;;4951471;29;20223;-83
2020/12/30 00:23:09;;;;;;;13.05;8.38;;;3.40;99.90;;;;;;4937136;28;20214;-85
2020/12/30 00:25:35;;;;;;;11.17;8.27;;;3.80;99.90;;;;;;4953127;28;20189;-85
2020/12/30 00:28:01;;;;;;;11.10;8.02;;;3.80;99.90;;;;;;4922251;29;20437;-85
2020/12/30 00:30:29;;;;;;;15.35;9.63;;;3.60;99.90;;;;;;4930670;29;20275;-84
2020/12/30 00:32:55;;;;;;;13.27;8.50;;;3.80;99.90;;;;;;4938002;29;20272;-84
2020/12/30 00:35:21;;;;;;;14.33;9.63;;;3.80;99.90;;;;;;4933796;29;21021;-85
2020/12/30 00:37:49;;;;;;;12.52;8.10;;;3.70;99.90;;;;;;4920157;29;20429;-84
2020/12/30 00:40:18;;;;;;;14.48;8.75;;;3.80;99.90;;;;;;4938498;29;20307;-85
2020/12/30 00:42:44;;;;;;;13.07;9.02;;;3.60;99.90;;;;;;4953856;29;20180;-84
2020/12/30 00:45:15;;;;;;;14.25;7.97;;;3.70;99.90;;;;;;4944295;29;20202;-84
2020/12/30 00:47:41;;;;;;;13.98;8.57;;;3.50;99.90;;;;;;4946525;29;20188;-84
2020/12/30 00:50:07;;;;;;;10.93;8.07;;;3.70;99.90;;;;;;4957842;28;20266;-85
2020/12/30 00:52:40;;;;;;;13.70;8.80;;;3.50;99.90;;;;;;4951859;28;20435;-85
2020/12/30 00:55:13;;;;;;;13.40;8.57;;;3.70;99.90;;;;;;4938658;29;20213;-85
2020/12/30 00:57:49;;;;;;;11.75;8.65;;;3.50;99.90;;;;;;4953659;28;20195;-84
2020/12/30 01:00:20;;;;;;;11.05;7.85;;;3.10;99.90;;;;;;4963342;28;20200;-83
2020/12/30 01:03:05;;;;;;;12.10;7.68;;;3.50;99.90;;;;;;4936854;29;20203;-83
2020/12/30 01:05:31;;;;;;;12.40;7.90;;;3.60;99.90;;;;;;4944696;29;20196;-83
2020/12/30 01:07:57;;;;;;;15.83;7.70;;;3.50;99.90;;;;;;4919955;29;20511;-83
2020/12/30 01:10:27;;;;;;;13.87;7.40;;;3.50;99.90;;;;;;4932325;29;20503;-83
2020/12/30 01:12:53;;;;;;;13.27;9.30;;;3.50;99.90;;;;;;4936602;29;20888;-83
2020/12/30 01:15:21;;;;;;;12.02;6.78;;;3.40;99.90;;;;;;4925913;29;20600;-83
2020/12/30 01:17:50;;;;;;;10.15;6.55;;;3.40;99.90;;;;;;4930580;29;20200;-83
2020/12/30 01:20:16;;;;;;;12.17;8.47;;;3.50;99.90;;;;;;4963511;28;20196;-82
2020/12/30 01:22:41;;;;;;;11.00;7.63;;;3.00;99.90;;;;;;4943450;29;20790;-82
2020/12/30 01:25:10;;;;;;;9.70;6.63;;;3.50;99.90;;;;;;4919374;29;20433;-82
2020/12/30 01:27:36;;;;;;;12.40;8.00;;;3.30;99.90;;;;;;4935799;29;20223;-82
2020/12/30 01:30:04;;;;;;;10.70;7.90;;;3.30;99.90;;;;;;4935808;29;20433;-82
2020/12/30 01:32:32;;;;;;;10.70;7.93;;;3.30;99.90;;;;;;4921720;29;20532;-82
2020/12/30 01:35:01;;;;;;;10.77;8.27;;;3.40;99.90;;;;;;4965099;28;20212;-82
2020/12/30 01:37:29;;;;;;;10.73;7.90;;;3.40;99.90;;;;;;4934365;29;20177;-82
2020/12/30 01:39:57;;;;;;;12.75;7.65;;;3.40;99.90;;;;;;4937393;29;20527;-82
2020/12/30 01:42:25;;;;;;;9.05;7.03;;;3.30;99.90;;;;;;4942387;28;20573;-82
2020/12/30 01:44:51;;;;;;;13.63;7.77;;;3.40;99.90;;;;;;4949786;28;20185;-82
2020/12/30 01:47:18;;;;;;;12.03;8.17;;;3.00;99.90;;;;;;4923861;29;20436;-82
2020/12/30 01:49:44;;;;;;;12.25;8.32;;;3.10;99.90;;;;;;4937169;29;20428;-82
2020/12/30 01:52:10;;;;;;;8.93;7.47;;;3.30;99.90;;;;;;4937085;29;20196;-83
2020/12/30 01:54:38;;;;;;;10.10;7.32;;;3.30;99.90;;;;;;4937738;29;20214;-82
2020/12/30 01:57:09;;;;;;;10.50;7.40;;;3.20;99.90;;;;;;4925471;29;20189;-82
2020/12/30 01:59:37;;;;;;;11.18;7.50;;;3.20;99.90;;;;;;4918401;29;20189;-82
2020/12/30 02:02:11;;;;;;;10.38;7.68;;;2.80;99.90;;;;;;4928561;29;20284;-83
2020/12/30 02:04:53;;;;;;;13.23;8.10;;;2.80;99.90;;;;;;4937581;29;20165;-82
2020/12/30 02:07:22;;;;;;;11.13;7.57;;;3.40;99.90;;;;;;4950960;29;20188;-82
2020/12/30 02:09:48;;;;;;;12.07;8.60;;;3.30;99.90;;;;;;4960567;28;20541;-82
2020/12/30 02:12:14;;;;;;;11.68;8.77;;;3.50;99.90;;;;;;4957384;28;20271;-82
2020/12/30 02:14:43;;;;;;;13.00;8.30;;;3.10;99.90;;;;;;4952550;29;20189;-82
2020/12/30 02:17:15;;;;;;;12.30;7.57;;;3.60;99.90;;;;;;4924431;29;20181;-81
2020/12/30 02:19:42;;;;;;;11.15;7.95;;;3.40;99.90;;;;;;4932511;29;20646;-81
2020/12/30 02:22:12;;;;;;;13.73;8.20;;;3.50;99.90;;;;;;4922769;29;20236;-82
2020/12/30 02:24:38;;;;;;;12.38;8.50;;;3.60;99.90;;;;;;4919130;29;20643;-82
2020/12/30 02:27:09;;;;;;;12.02;8.35;;;3.60;99.90;;;;;;4918612;29;20215;-82
2020/12/30 02:29:38;;;;;;;10.73;7.47;;;3.60;99.90;;;;;;4923519;29;20191;-82
2020/12/30 02:32:06;;;;;;;13.38;8.43;;;3.10;99.90;;;;;;4925528;29;20196;-82
2020/12/30 02:34:32;;;;;;;16.03;10.10;;;3.40;99.90;;;;;;4918200;29;20182;-82
2020/12/30 02:36:58;;;;;;;11.67;8.50;;;3.70;99.90;;;;;;4933828;29;20777;-82
2020/12/30 02:39:24;;;;;;;17.43;8.77;;;3.50;99.90;;;;;;4950154;28;20421;-83
2020/12/30 02:41:50;;;;;;;13.32;9.25;;;3.70;99.90;;;;;;4933154;29;20421;-83
2020/12/30 02:44:17;;;;;;;11.82;7.80;;;3.30;99.90;;;;;;4924017;29;20219;-83
2020/12/30 02:46:43;;;;;;;11.05;8.15;;;3.80;99.90;;;;;;4937226;29;20220;-83
2020/12/30 02:49:11;;;;;;;11.80;9.10;;;3.80;99.90;;;;;;4931696;28;20229;-83
2020/12/30 02:51:44;;;;;;;14.95;8.95;;;3.80;99.90;;;;;;4916907;29;20429;-83
2020/12/30 02:54:10;;;;;;;12.60;9.38;;;3.80;99.90;;;;;;4949540;29;20188;-83
2020/12/30 02:56:36;;;;;;;14.15;9.93;;;4.00;99.90;;;;;;4951797;29;20212;-83
2020/12/30 02:59:03;;;;;;;14.00;9.57;;;3.90;99.90;;;;;;4935958;28;20212;-82
2020/12/30 03:01:29;;;;;;;15.00;9.55;;;4.00;99.90;;;;;;4932383;29;20432;-83
2020/12/30 03:03:55;;;;;;;12.60;9.10;;;4.00;99.90;;;;;;4917044;29;20572;-83
2020/12/30 03:06:27;;;;;;;14.23;9.23;;;3.60;99.90;;;;;;4917686;29;20245;-83
2020/12/30 03:08:53;;;;;;;12.20;9.77;;;4.00;99.90;;;;;;4920154;29;20838;-83
2020/12/30 03:11:22;;;;;;;13.45;9.75;;;4.20;99.90;;;;;;4944372;29;20641;-83
2020/12/30 03:13:48;;;;;;;11.95;8.50;;;4.10;99.90;;;;;;4917661;29;20284;-82
2020/12/30 03:16:15;;;;;;;12.88;8.90;;;3.80;99.90;;;;;;4920026;29;20216;-83
2020/12/30 03:18:43;;;;;;;13.90;9.15;;;4.00;99.90;;;;;;4930846;29;20621;-83
2020/12/30 03:21:11;;;;;;;15.93;10.30;;;4.10;99.90;;;;;;4938380;29;20553;-83
2020/12/30 03:23:39;;;;;;;17.42;10.27;;;3.60;99.90;;;;;;4934187;29;20738;-82
2020/12/30 03:26:10;;;;;;;16.90;10.95;;;4.00;99.90;;;;;;4921318;29;20213;-82
2020/12/30 03:28:36;;;;;;;17.63;10.40;;;4.00;99.90;;;;;;4938694;29;20673;-82
2020/12/30 03:31:02;;;;;;;17.20;11.23;;;4.00;99.90;;;;;;4940022;29;20436;-83
2020/12/30 03:33:30;;;;;;;16.45;11.75;;;3.90;99.90;;;;;;4923784;29;20433;-83
2020/12/30 03:35:56;;;;;;;15.98;10.30;;;4.10;99.90;;;;;;4921261;29;20587;-82
2020/12/30 03:38:22;;;;;;;22.00;10.73;;;4.00;99.90;;;;;;4934441;29;20200;-83
2020/12/30 03:40:48;;;;;;;17.40;11.13;;;3.40;99.90;;;;;;4987759;28;20439;-83
2020/12/30 03:43:14;;;;;;;15.30;10.77;;;3.70;99.90;;;;;;4931839;29;20449;-83
2020/12/30 03:45:40;;;;;;;16.90;10.60;;;3.90;99.90;;;;;;4929102;29;20444;-83
2020/12/30 03:48:08;;;;;;;15.80;10.53;;;4.00;99.90;;;;;;4929053;29;20476;-83
2020/12/30 03:50:34;;;;;;;14.68;10.25;;;3.60;99.90;;;;;;4920587;29;20460;-83
2020/12/30 03:53:02;;;;;;;16.17;10.97;;;3.90;99.90;;;;;;4951880;29;20193;-83
2020/12/30 03:55:30;;;;;;;15.70;10.32;;;3.80;99.90;;;;;;4939333;29;20472;-83
2020/12/30 03:57:58;;;;;;;16.27;10.68;;;4.00;99.90;;;;;;4939519;29;20191;-83
2020/12/30 04:00:26;;;;;;;17.15;10.75;;;4.10;99.90;;;;;;4921447;29;20268;-83
2020/12/30 04:02:55;;;;;;;16.30;10.80;;;4.00;99.90;;;;;;4920751;29;20196;-83
2020/12/30 04:05:23;;;;;;;16.80;11.00;;;3.90;99.90;;;;;;4935935;29;20204;-83
2020/12/30 04:07:49;;;;;;;16.73;11.23;;;3.90;99.90;;;;;;4953792;29;20440;-83
2020/12/30 04:10:15;;;;;;;19.15;11.65;;;3.90;99.90;;;;;;4949439;28;20176;-83
2020/12/30 04:12:44;;;;;;;19.30;12.40;;;3.70;99.90;;;;;;4957150;28;20348;-83
2020/12/30 04:15:10;;;;;;;18.15;10.60;;;3.90;99.90;;;;;;4935057;29;20213;-82
2020/12/30 04:17:38;;;;;;;15.03;9.87;;;3.90;99.90;;;;;;4935676;29;20219;-83
2020/12/30 04:20:04;;;;;;;18.17;10.68;;;3.80;99.90;;;;;;4940909;28;20923;-83
2020/12/30 04:22:31;;;;;;;17.73;10.75;;;3.80;99.90;;;;;;4938896;29;20235;-83
2020/12/30 04:24:57;;;;;;;13.35;10.60;;;3.80;99.90;;;;;;4955690;28;20619;-83
2020/12/30 04:27:25;;;;;;;17.43;11.07;;;3.80;99.90;;;;;;4952461;28;20199;-83
2020/12/30 04:29:51;;;;;;;15.73;10.88;;;3.80;99.90;;;;;;4954472;29;20516;-83
2020/12/30 04:32:17;;;;;;;16.20;10.93;;;3.80;99.90;;;;;;4921717;29;20748;-83
2020/12/30 04:34:45;;;;;;;20.15;11.40;;;3.70;99.90;;;;;;4934809;29;20514;-83
2020/12/30 04:37:14;;;;;;;25.98;11.40;;;3.70;99.90;;;;;;4921200;29;20272;-83
2020/12/30 04:39:43;;;;;;;14.73;11.10;;;3.80;99.90;;;;;;4934697;29;20591;-83
2020/12/30 04:42:22;;;;;;;17.13;11.55;;;3.70;99.90;;;;;;4926869;28;20213;-83
2020/12/30 04:44:56;;;;;;;18.25;11.13;;;3.70;99.90;;;;;;4927280;29;20176;-82
2020/12/30 04:47:25;;;;;;;20.20;11.70;;;3.80;99.90;;;;;;4920761;28;20209;-83
2020/12/30 04:49:51;;;;;;;19.95;11.32;;;3.80;99.90;;;;;;4933512;29;20193;-83
2020/12/30 04:52:21;;;;;;;18.00;11.10;;;3.80;99.90;;;;;;4922502;28;20280;-84
2020/12/30 04:54:50;;;;;;;16.48;10.98;;;3.70;99.90;;;;;;4919936;29;20445;-84
2020/12/30 04:57:25;;;;;;;14.30;10.57;;;3.80;99.90;;;;;;4951449;29;20184;-83
2020/12/30 04:59:55;;;;;;;16.80;10.73;;;4.10;99.90;;;;;;4968549;28;20263;-83
2020/12/30 05:02:35;;;;;;;14.32;10.27;;;3.90;99.90;;;;;;4938446;29;20208;-82
2020/12/30 05:05:01;;;;;;;16.17;10.98;;;3.90;99.90;;;;;;4969877;28;20196;-83
2020/12/30 05:07:28;;;;;;;21.30;13.05;;;4.00;99.90;;;;;;4966589;28;20189;-83
2020/12/30 05:09:56;;;;;;;18.00;11.40;;;3.90;99.90;;;;;;4921183;29;20192;-83
2020/12/30 05:12:24;;;;;;;16.65;12.05;;;3.90;99.90;;;;;;4953682;28;20576;-83
2020/12/30 05:14:52;;;;;;;15.95;12.10;;;3.90;99.90;;;;;;4953055;29;20239;-83
2020/12/30 05:17:23;;;;;;;20.30;13.00;;;3.90;99.90;;;;;;4937075;29;20189;-83
2020/12/30 05:19:49;;;;;;;18.48;12.70;;;4.00;99.90;;;;;;4938177;29;20624;-83
2020/12/30 05:22:18;;;;;;;20.80;13.87;;;3.50;99.90;;;;;;4936528;29;20283;-83
2020/12/30 05:24:46;;;;;;;18.58;11.85;;;4.00;99.90;;;;;;4919202;29;20887;-83
2020/12/30 05:27:13;;;;;;;16.33;12.68;;;4.00;99.90;;;;;;4935300;28;20196;-83
2020/12/30 05:29:54;;;;;;;17.33;11.95;;;3.90;99.90;;;;;;4937880;29;20518;-83
2020/12/30 05:32:22;;;;;;;17.38;12.00;;;4.10;99.90;;;;;;4966974;28;20207;-83
2020/12/30 05:34:48;;;;;;;20.00;12.20;;;3.90;99.90;;;;;;4935099;29;20599;-83
2020/12/30 05:37:17;;;;;;;21.88;12.38;;;4.10;99.90;;;;;;4937747;28;20447;-83
2020/12/30 05:39:48;;;;;;;16.95;12.00;;;4.10;99.90;;;;;;4967977;28;20181;-83
2020/12/30 05:42:19;;;;;;;21.83;11.85;;;4.10;99.90;;;;;;4937998;29;20259;-83
2020/12/30 05:44:48;;;;;;;18.77;12.35;;;4.00;99.90;;;;;;4933387;29;20242;-83
2020/12/30 05:47:16;;;;;;;22.92;12.18;;;4.10;99.90;;;;;;4949929;29;20220;-82
2020/12/30 05:49:43;;;;;;;17.58;12.88;;;4.30;99.90;;;;;;4927489;29;20195;-83
2020/12/30 05:52:19;;;;;;;18.05;11.73;;;4.10;99.90;;;;;;4936299;29;20284;-83
2020/12/30 05:54:56;;;;;;;18.45;12.23;;;4.10;99.90;;;;;;4918602;29;20189;-82
2020/12/30 05:57:33;;;;;;;19.55;12.15;;;4.40;99.90;;;;;;4933675;29;20191;-83
2020/12/30 06:00:10;;;;;;;19.73;13.35;;;4.20;99.90;;;;;;4918690;29;20210;-83
2020/12/30 06:02:48;;;;;;;23.08;12.98;;;4.20;99.90;;;;;;4922709;29;20543;-82
2020/12/30 06:05:18;;;;;;;20.75;13.13;;;4.10;99.90;;;;;;4927810;29;20201;-82
2020/12/30 06:07:48;;;;;;;18.52;12.90;;;4.30;99.90;;;;;;4938740;29;20185;-83
2020/12/30 06:10:18;;;;;;;21.30;13.55;;;4.30;99.90;;;;;;4949331;29;20642;-83
2020/12/30 06:12:53;;;;;;;20.15;13.27;;;4.30;99.90;;;;;;4945314;29;20204;-83
2020/12/30 06:15:21;;;;;;;22.60;14.45;;;4.20;99.90;;;;;;4918517;29;20213;-83
2020/12/30 06:18:04;;;;;;;22.08;12.98;;;4.40;99.90;;;;;;4922739;29;20200;-83
2020/12/30 06:20:31;;;;;;;22.35;13.02;;;4.30;99.90;;;;;;4966101;28;20231;-83
2020/12/30 06:23:09;;;;;;;21.58;12.30;;;4.30;99.90;;;;;;4944592;28;20215;-83
2020/12/30 06:25:42;;;;;;;20.83;13.05;;;4.50;99.90;;;;;;4918210;29;20238;-83
2020/12/30 06:28:19;;;;;;;24.02;12.52;;;4.30;99.90;;;;;;4940596;29;20214;-83
2020/12/30 06:30:50;;;;;;;19.48;12.60;;;4.30;99.90;;;;;;4967967;28;20203;-83
2020/12/30 06:33:22;;;;;;;21.65;14.07;;;4.20;99.90;;;;;;4927263;29;20213;-83
2020/12/30 06:35:54;;;;;;;20.45;12.80;;;3.90;99.90;;;;;;4917851;29;20201;-83
2020/12/30 06:38:24;;;;;;;23.38;13.38;;;4.20;99.90;;;;;;4918277;29;20207;-83
2020/12/30 06:41:01;;;;;;;22.10;14.13;;;4.10;99.90;;;;;;4951029;29;20196;-82
2020/12/30 06:43:47;;;;;;;20.27;12.93;;;4.20;99.90;;;;;;4936048;28;20524;-83
2020/12/30 06:46:34;;;;;;;23.27;14.57;;;4.10;99.90;;;;;;4917957;29;20196;-83
2020/12/30 06:49:06;;;;;;;23.40;13.43;;;4.20;99.90;;;;;;4946698;29;20228;-82
2020/12/30 06:51:37;;;;;;;21.35;13.43;;;4.10;99.90;;;;;;4936159;29;20283;-83
2020/12/30 06:54:03;;;;;;;20.80;13.90;;;3.70;99.90;;;;;;4948049;28;20197;-83
2020/12/30 06:56:43;;;;;;;24.63;14.20;;;4.00;99.90;;;;;;4917040;29;20217;-83
2020/12/30 06:59:29;;;;;;;23.90;14.32;;;4.10;99.90;;;;;;4951292;29;20215;-83
2020/12/30 07:02:03;;;;;;;21.63;14.45;;;4.10;99.90;;;;;;4930819;29;20662;-83
2020/12/30 07:04:34;;;;;;;23.70;13.88;;;4.10;99.90;;;;;;4920200;29;20519;-82
2020/12/30 07:07:03;;;;;;;22.52;14.70;;;4.10;99.90;;;;;;4923827;29;20204;-82
2020/12/30 07:09:38;;;;;;;28.65;13.60;;;4.30;99.90;;;;;;4927425;29;20196;-82
2020/12/30 07:12:06;;;;;;;24.27;14.20;;;4.20;99.90;;;;;;4936519;29;20602;-82
2020/12/30 07:14:37;;;;;;;23.63;13.90;;;4.40;99.90;;;;;;4927769;28;20197;-82
2020/12/30 07:17:04;;;;;;;22.10;13.38;;;4.40;99.90;;;;;;4917575;29;20662;-82
2020/12/30 07:19:37;;;;;;;26.25;13.50;;;4.30;99.90;;;;;;4923745;29;20188;-82
2020/12/30 07:22:07;;;;;;;23.10;15.38;;;4.20;99.90;;;;;;4936679;29;20267;-82
2020/12/30 07:24:38;;;;;;;22.10;13.77;;;4.20;99.90;;;;;;4936262;29;20200;-82
2020/12/30 07:27:07;;;;;;;21.52;13.82;;;4.20;99.90;;;;;;4935662;29;20185;-82
2020/12/30 07:29:34;;;;;;;21.00;13.80;;;4.20;99.90;;;;;;4932864;28;20177;-82
2020/12/30 07:32:02;;;;;;;21.70;14.63;;;4.20;99.90;;;;;;4929888;29;20197;-82
2020/12/30 07:34:39;;;;;;;21.85;14.52;;;4.20;99.90;;;;;;4936518;29;20251;-82
2020/12/30 07:37:08;;;;;;;28.88;15.57;;;4.20;99.90;;;;;;4937767;29;20268;-82
2020/12/30 07:39:38;;;;;;;24.65;14.13;;;4.30;99.90;;;;;;4929370;29;20592;-82
2020/12/30 07:42:12;;;;;;;24.00;14.15;;;4.20;99.90;;;;;;4942148;28;20583;-82
2020/12/30 07:44:49;;;;;;;28.10;15.65;;;4.30;99.90;;;;;;4936325;29;20192;-81
2020/12/30 07:47:18;;;;;;;20.63;12.90;;;4.10;99.90;;;;;;4935952;29;20181;-82
2020/12/30 07:49:44;;;;;;;21.38;14.70;;;4.10;99.90;;;;;;4930734;29;20695;-82
2020/12/30 07:52:14;;;;;;;23.52;14.38;;;3.60;99.90;;;;;;4917525;29;20335;-81
2020/12/30 07:54:40;;;;;;;23.95;15.30;;;4.10;99.90;;;;;;4936017;29;20184;-81
2020/12/30 07:57:11;;;;;;;22.98;15.65;;;4.10;99.90;;;;;;4936225;28;20187;-81
2020/12/30 07:59:41;;;;;;;24.13;15.55;;;4.00;99.90;;;;;;4931679;29;20209;-82
2020/12/30 08:02:15;;;;;;;26.30;15.98;;;4.20;99.90;;;;;;4919119;29;20188;-81
2020/12/30 08:04:42;;;;;;;28.15;15.48;;;4.10;99.90;;;;;;4924548;29;20169;-81
2020/12/30 08:07:12;;;;;;;23.88;15.25;;;4.00;99.90;;;;;;4939484;29;20268;-81
2020/12/30 08:09:40;;;;;;;23.73;15.48;;;4.20;99.90;;;;;;4956702;28;20634;-82
2020/12/30 08:12:14;;;;;;;24.30;15.02;;;4.10;99.90;;;;;;4939509;28;20180;-81
2020/12/30 08:14:44;;;;;;;25.73;15.85;;;4.10;99.90;;;;;;4939237;28;20187;-82
2020/12/30 08:17:14;;;;;;;22.90;14.07;;;4.20;99.90;;;;;;4951268;28;20201;-81
2020/12/30 08:19:45;;;;;;;28.45;15.32;;;3.90;99.90;;;;;;4934130;29;20177;-81
2020/12/30 08:22:14;;;;;;;23.20;15.55;;;4.20;99.90;;;;;;4928320;29;20228;-81
2020/12/30 08:24:47;;;;;;;28.90;15.90;;;3.80;99.90;;;;;;4938767;29;20209;-81
2020/12/30 08:27:17;;;;;;;29.45;17.83;;;4.10;99.90;;;;;;4930990;29;20213;-81
2020/12/30 08:29:44;;;;;;;28.73;15.40;;;4.20;99.90;;;;;;4935540;29;20188;-82
2020/12/30 08:32:33;;;;;;;32.35;18.17;;;4.30;99.90;;;;;;4921747;29;20186;-82
2020/12/30 08:35:15;;;;;;;25.65;16.33;;;4.50;99.90;;;;;;4934597;29;20241;-82
2020/12/30 08:37:46;;;;;;;23.73;16.63;;;4.40;99.90;;;;;;4934633;29;20192;-82
2020/12/30 08:40:16;;;;;;;27.13;15.88;;;4.40;99.90;;;;;;4942384;29;20281;-82
2020/12/30 08:43:11;;;;;;;27.00;15.98;;;4.40;99.90;;;;;;4920161;29;20197;-82
2020/12/30 08:45:49;;;;;;;25.40;15.20;;;4.40;99.90;;;;;;4931981;29;20267;-82
2020/12/30 08:48:19;;;;;;;25.27;15.65;;;4.30;99.90;;;;;;4970160;28;20196;-81
2020/12/30 08:50:47;;;;;;;24.70;14.82;;;4.40;99.90;;;;;;4969166;28;20188;-83
2020/12/30 08:53:16;;;;;;;24.67;15.52;;;4.30;99.90;;;;;;4953700;29;20272;-82
2020/12/30 08:55:44;;;;;;;28.15;16.17;;;4.40;99.90;;;;;;4949787;29;20219;-82
2020/12/30 08:58:10;;;;;;;23.75;15.07;;;4.30;99.90;;;;;;4944241;29;20192;-82
2020/12/30 09:00:37;;;;;;;25.73;16.33;;;4.40;99.90;;;;;;4938177;29;20283;-82
2020/12/30 09:03:14;;;;;;;26.30;15.25;;;4.40;99.90;;;;;;4949465;28;20844;-82
2020/12/30 09:05:41;;;;;;;24.70;15.15;;;4.30;99.90;;;;;;4966693;28;20192;-81
2020/12/30 09:08:17;;;;;;;27.77;17.25;;;4.30;99.90;;;;;;4930416;29;20212;-82
2020/12/30 09:10:48;;;;;;;31.27;17.17;;;4.40;99.90;;;;;;4937480;29;20196;-80
2020/12/30 09:13:19;;;;;;;28.10;17.20;;;4.50;99.90;;;;;;4939431;29;20574;-85
2020/12/30 09:15:54;;;;;;;31.60;17.40;;;4.50;99.90;;;;;;4951237;28;20228;-86
2020/12/30 09:18:24;;;;;;;26.98;15.35;;;4.60;99.90;;;;;;4962658;28;20189;-87
2020/12/30 09:20:54;;;;;;;29.55;17.13;;;4.60;99.90;;;;;;4941896;28;20267;-83
2020/12/30 09:23:22;;;;;;;31.08;16.33;;;4.60;99.90;;;;;;4951574;28;20211;-83
2020/12/30 09:25:48;;;;;;;28.70;16.73;;;4.60;99.90;;;;;;4916843;29;20205;-84
2020/12/30 09:28:15;;;;;;;30.42;16.45;;;4.60;99.90;;;;;;4942681;29;20203;-85
2020/12/30 09:30:41;;;;;;;28.45;18.10;;;4.60;99.90;;;;;;4945593;29;20279;-82
2020/12/30 09:33:19;;;;;;;27.52;17.75;;;4.70;99.90;;;;;;4937696;29;20192;-83
2020/12/30 09:35:48;;;;;;;29.27;16.67;;;4.80;99.90;;;;;;4963610;28;20512;-84
2020/12/30 09:38:23;;;;;;;30.50;17.95;;;4.40;99.90;;;;;;4965941;28;20189;-84
2020/12/30 09:40:51;;;;;;;29.90;17.15;;;4.80;99.90;;;;;;4944247;29;20207;-84
2020/12/30 09:43:21;;;;;;;26.40;16.17;;;4.80;99.90;;;;;;4932597;29;20174;-83
2020/12/30 09:45:59;;;;;;;27.52;16.20;;;4.90;99.90;;;;;;4923764;29;20654;-80
2020/12/30 09:48:25;;;;;;;29.65;18.05;;;4.80;99.90;;;;;;4921024;29;20193;-85
2020/12/30 09:50:53;;;;;;;28.33;17.00;;;4.80;99.90;;;;;;4938035;28;20546;-83
2020/12/30 09:53:19;;;;;;;27.20;16.85;;;4.80;99.90;;;;;;4924638;29;20452;-84
2020/12/30 09:55:48;;;;;;;26.55;18.30;;;5.00;99.90;;;;;;4942823;29;20240;-87
2020/12/30 09:58:14;;;;;;;30.00;18.52;;;4.90;99.90;;;;;;4935400;29;20275;-86
2020/12/30 10:00:41;;;;;;;31.50;19.92;;;5.00;99.90;;;;;;4938719;29;20493;-86
2020/12/30 10:03:08;;;;;;;29.85;17.67;;;5.20;99.90;;;;;;4938303;29;20181;-84
2020/12/30 10:05:34;;;;;;;29.55;17.95;;;5.00;99.90;;;;;;4936342;29;20195;-82
2020/12/30 10:08:05;;;;;;;30.70;17.65;;;4.90;99.90;;;;;;4954490;28;20248;-85
2020/12/30 10:10:33;;;;;;;29.50;17.97;;;5.10;99.90;;;;;;4973758;28;20633;-84
2020/12/30 10:12:59;;;;;;;28.48;16.85;;;5.10;99.90;;;;;;4930043;29;20452;-82
2020/12/30 10:15:28;;;;;;;28.80;17.45;;;5.10;99.90;;;;;;4952440;29;20220;-82
2020/12/30 10:17:54;;;;;;;24.42;15.38;;;5.10;99.90;;;;;;4954946;28;20184;-81
2020/12/30 10:20:20;;;;;;;28.25;17.30;;;5.10;99.90;;;;;;4953851;28;20201;-82
2020/12/30 10:22:49;;;;;;;31.40;17.30;;;5.20;99.90;;;;;;4935252;29;20343;-81
2020/12/30 10:25:20;;;;;;;30.50;17.65;;;5.30;99.90;;;;;;4942275;28;20672;-81
2020/12/30 10:27:46;;;;;;;30.95;18.63;;;5.20;99.90;;;;;;4927444;28;20200;-80
2020/12/30 10:30:12;;;;;;;27.63;16.80;;;5.10;99.90;;;;;;4919541;29;20193;-87
2020/12/30 10:32:40;;;;;;;31.20;18.77;;;5.20;99.90;;;;;;4963813;28;20451;-85
2020/12/30 10:35:07;;;;;;;34.28;20.17;;;5.30;99.90;;;;;;4936613;29;20216;-85
2020/12/30 10:37:33;;;;;;;27.85;17.55;;;5.30;99.90;;;;;;4952160;29;20207;-85
2020/12/30 10:40:04;;;;;;;26.67;15.82;;;5.40;99.90;;;;;;4951389;28;20598;-85
2020/12/30 10:42:34;;;;;;;25.33;15.50;;;5.40;99.90;;;;;;4937540;28;20197;-84
2020/12/30 10:45:03;;;;;;;28.73;16.90;;;5.60;99.90;;;;;;4937252;29;20207;-84
2020/12/30 10:47:31;;;;;;;28.33;17.38;;;5.40;99.90;;;;;;4929072;29;20188;-87
2020/12/30 10:49:59;;;;;;;29.27;16.75;;;5.50;99.90;;;;;;4931502;29;20207;-87
2020/12/30 10:52:25;;;;;;;28.40;16.47;;;5.40;99.90;;;;;;4919308;29;20212;-83
2020/12/30 10:54:51;;;;;;;28.55;16.63;;;5.40;99.90;;;;;;4932746;29;20513;-83
2020/12/30 10:57:18;;;;;;;25.13;14.70;;;5.50;99.90;;;;;;4934775;29;20686;-81
2020/12/30 10:59:49;;;;;;;28.70;16.25;;;5.50;99.90;;;;;;4935407;29;20420;-85
2020/12/30 11:02:19;;;;;;;24.80;15.45;;;5.60;99.90;;;;;;4930966;29;20223;-83
2020/12/30 11:04:47;;;;;;;26.38;16.27;;;5.60;99.90;;;;;;4936031;29;20193;-84
2020/12/30 11:07:16;;;;;;;24.92;14.50;;;5.60;99.90;;;;;;4936587;29;20197;-87
2020/12/30 11:09:49;;;;;;;25.75;13.43;;;5.70;99.90;;;;;;4945246;29;20187;-88
2020/12/30 11:12:15;;;;;;;21.75;14.23;;;5.70;99.90;;;;;;4940449;29;20185;-81
2020/12/30 11:14:43;;;;;;;23.73;14.00;;;5.80;99.90;;;;;;4936795;29;20619;-84
2020/12/30 11:17:12;;;;;;;24.52;15.77;;;5.80;99.90;;;;;;4937327;29;20527;-89
2020/12/30 11:19:40;;;;;;;22.45;14.18;;;5.70;99.90;;;;;;4936828;29;20702;-84
2020/12/30 11:22:06;;;;;;;23.07;13.30;;;5.70;99.90;;;;;;4935990;28;20240;-85
2020/12/30 11:24:34;;;;;;;24.52;15.38;;;5.60;99.90;;;;;;4938400;29;20443;-82
2020/12/30 11:27:02;;;;;;;21.92;13.00;;;5.70;99.90;;;;;;4937837;29;20180;-85
2020/12/30 11:29:30;;;;;;;24.45;13.70;;;5.60;99.90;;;;;;4936866;29;20211;-86
2020/12/30 11:32:01;;;;;;;23.10;14.65;;;5.60;99.90;;;;;;4937513;28;20212;-86
2020/12/30 11:34:27;;;;;;;24.30;15.07;;;5.60;99.90;;;;;;4937019;29;20225;-84
2020/12/30 11:36:55;;;;;;;21.63;13.73;;;5.50;99.90;;;;;;4937477;29;20224;-83
2020/12/30 11:39:24;;;;;;;24.15;13.35;;;5.50;99.90;;;;;;4976081;28;20783;-83
2020/12/30 11:41:50;;;;;;;33.13;14.98;;;5.50;99.90;;;;;;4946384;29;20275;-83
2020/12/30 11:44:20;;;;;;;22.77;12.75;;;5.40;99.90;;;;;;4954768;29;20177;-84
2020/12/30 11:46:52;;;;;;;25.40;15.27;;;5.50;99.90;;;;;;4940246;29;20286;-82
2020/12/30 11:49:25;;;;;;;23.23;14.32;;;5.50;99.90;;;;;;4938782;29;20200;-85
2020/12/30 11:51:53;;;;;;;22.50;14.00;;;5.70;99.90;;;;;;4940290;29;20511;-83
2020/12/30 11:54:22;;;;;;;23.13;14.50;;;5.70;99.90;;;;;;4939843;29;20204;-87
2020/12/30 11:56:50;;;;;;;25.33;14.98;;;5.70;99.90;;;;;;4939294;29;20654;-83
2020/12/30 11:59:19;;;;;;;22.85;13.70;;;5.80;99.90;;;;;;4939640;29;20593;-83
2020/12/30 12:01:45;;;;;;;23.20;14.00;;;5.70;99.90;;;;;;4939271;29;20195;-83
2020/12/30 12:04:13;;;;;;;23.97;13.40;;;5.70;99.90;;;;;;4938814;29;20196;-83
2020/12/30 12:06:42;;;;;;;22.88;13.65;;;5.80;99.90;;;;;;4967317;28;20443;-84
2020/12/30 12:09:08;;;;;;;24.25;14.95;;;5.90;99.90;;;;;;4952634;28;20577;-84
2020/12/30 12:11:35;;;;;;;22.67;13.10;;;5.90;99.90;;;;;;4958459;28;20197;-84
2020/12/30 12:14:01;;;;;;;23.63;14.35;;;5.80;99.90;;;;;;4945773;29;20944;-84
2020/12/30 12:16:29;;;;;;;21.88;14.27;;;5.90;99.90;;;;;;4946880;28;20291;-84
2020/12/30 12:18:57;;;;;;;26.53;13.93;;;5.90;99.90;;;;;;4949107;29;20243;-83
2020/12/30 12:21:25;;;;;;;22.30;13.02;;;5.90;99.90;;;;;;4950320;28;20463;-84
2020/12/30 12:23:53;;;;;;;24.23;14.45;;;5.90;99.90;;;;;;4956522;28;20199;-83
2020/12/30 12:26:25;;;;;;;23.20;12.63;;;5.90;99.90;;;;;;4949839;29;20195;-82
2020/12/30 12:29:17;;;;;;;22.33;13.85;;;5.90;99.90;;;;;;4928440;29;20789;-83
2020/12/30 12:31:45;;;;;;;22.75;13.30;;;5.90;99.90;;;;;;4927090;29;20261;-84
2020/12/30 12:34:15;;;;;;;27.00;14.52;;;6.00;99.90;;;;;;4936701;29;20313;-83
2020/12/30 12:36:41;;;;;;;24.02;14.88;;;6.10;99.90;;;;;;4939577;29;20208;-83
2020/12/30 12:39:09;;;;;;;25.73;14.00;;;6.10;99.90;;;;;;4932193;29;20668;-83
2020/12/30 12:41:37;;;;;;;25.63;14.93;;;6.10;99.90;;;;;;4939823;28;20267;-83
2020/12/30 12:44:03;;;;;;;22.23;14.98;;;6.10;99.90;;;;;;4937107;29;20254;-83
2020/12/30 12:46:32;;;;;;;21.30;13.03;;;6.10;99.90;;;;;;4938248;29;20611;-84
2020/12/30 12:48:58;;;;;;;23.05;14.82;;;6.00;99.90;;;;;;4936892;29;20463;-83
2020/12/30 12:51:29;;;;;;;23.63;13.50;;;5.90;99.90;;;;;;4938278;29;20641;-84